Time;durP1;ratioP1;P1;durP2;ratioP2;P2;SDS_P1;SDS_P2;PMS_P1;PMS_P2;Temp;Humidity;BMP_temperature;BMP_pressure;BME280_temperature;BME280_humidity;BME280_pressure;Samples;Min_cycle;Max_cycle;Signal;HPM_P1;HPM_P2
2022/11/10 00:01:58;;;;;;;;;15.50;14.00;;;;;-147.17;100.00;-15917.19;4976353;28;51434;-43
2022/11/10 00:04:23;;;;;;;;;12.25;12.00;;;;;-147.17;100.00;-15917.19;4988956;28;50993;-45
2022/11/10 00:06:48;;;;;;;;;13.75;13.25;;;;;-147.17;100.00;-15917.19;4980955;28;52041;-46
2022/11/10 00:09:14;;;;;;;;;16.50;13.25;;;;;-147.17;100.00;-15917.19;4975171;28;51334;-45
2022/11/10 00:11:41;;;;;;;;;18.00;14.50;;;;;-147.17;100.00;-15917.19;4978298;28;52115;-43
2022/11/10 00:17:00;;;;;;;;;11.00;11.00;;;;;-147.17;100.00;-15917.19;4979968;28;51810;-48
2022/11/10 00:19:27;;;;;;;;;11.00;11.00;;;;;-147.17;100.00;-15917.19;4978054;28;52059;-49
2022/11/10 00:21:52;;;;;;;;;14.50;14.50;;;;;-147.17;100.00;-15917.19;4977028;28;51528;-50
2022/11/10 00:24:18;;;;;;;;;10.50;9.00;;;;;-147.17;100.00;-15917.19;4982541;28;51100;-52
2022/11/10 00:26:43;;;;;;;;;13.00;13.00;;;;;-147.17;100.00;-15917.19;4981393;28;51427;-53
2022/11/10 00:29:09;;;;;;;;;12.67;12.00;;;;;-147.17;100.00;-15917.19;4982989;28;51212;-53
2022/11/10 00:31:36;;;;;;;;;12.00;12.00;;;;;-147.17;100.00;-15917.19;4983297;28;51255;-53
2022/11/10 00:34:02;;;;;;;;;17.00;14.50;;;;;-147.17;100.00;-15917.19;4966397;28;51418;-53
2022/11/10 00:36:28;;;;;;;;;13.00;12.00;;;;;-147.17;100.00;-15917.19;4983167;28;52115;-54
2022/11/10 00:38:53;;;;;;;;;13.00;12.50;;;;;-147.17;100.00;-15917.19;4984871;28;51095;-52
2022/11/10 00:41:19;;;;;;;;;12.50;12.50;;;;;-147.17;100.00;-15917.19;4980934;28;51564;-53
2022/11/10 00:43:44;;;;;;;;;12.50;11.25;;;;;-147.17;100.00;-15917.19;4984980;28;51208;-51
2022/11/10 00:46:10;;;;;;;;;12.75;12.75;;;;;-147.17;100.00;-15917.19;4983677;28;51921;-54
2022/11/10 00:48:35;;;;;;;;;12.00;11.00;;;;;-147.17;100.00;-15917.19;4984172;28;51068;-52
2022/11/10 00:51:00;;;;;;;;;13.75;13.25;;;;;-147.17;100.00;-15917.19;4984219;28;51954;-52
2022/11/10 00:53:26;;;;;;;;;11.75;11.25;;;;;-147.17;100.00;-15917.19;4981774;28;51568;-52
2022/11/10 00:55:51;;;;;;;;;12.50;11.25;;;;;-147.17;100.00;-15917.19;4966949;28;53727;-52
2022/11/10 00:58:17;;;;;;;;;12.25;11.25;;;;;-147.17;100.00;-15917.19;4982465;28;51165;-49
2022/11/10 01:00:42;;;;;;;;;17.25;13.25;;;;;-147.17;100.00;-15917.19;4984771;28;51240;-54
2022/11/10 01:03:15;;;;;;;;;14.00;11.00;;;;;-147.17;100.00;-15917.19;4983562;28;51277;-50
2022/11/10 01:05:42;;;;;;;;;9.00;9.00;;;;;-147.17;100.00;-15917.19;4967331;28;51322;-54
2022/11/10 01:08:07;;;;;;;;;11.67;10.67;;;;;-147.17;100.00;-15917.19;4982709;28;51145;-51
2022/11/10 01:10:33;;;;;;;;;10.75;10.75;;;;;-147.17;100.00;-15917.19;4982398;28;51267;-49
2022/11/10 01:12:58;;;;;;;;;12.25;12.25;;;;;-147.17;100.00;-15917.19;4982191;28;51157;-53
2022/11/10 01:15:24;;;;;;;;;10.00;10.00;;;;;-147.17;100.00;-15917.19;4981693;28;51741;-53
2022/11/10 01:17:51;;;;;;;;;16.00;14.25;;;;;-147.17;100.00;-15917.19;4984983;28;51090;-51
2022/11/10 01:20:16;;;;;;;;;13.50;11.50;;;;;-147.17;100.00;-15917.19;4986602;28;51247;-50
2022/11/10 01:22:42;;;;;;;;;11.50;10.75;;;;;-147.17;100.00;-15917.19;4985128;28;52424;-50
2022/11/10 01:25:08;;;;;;;;;12.00;12.00;;;;;-147.17;100.00;-15917.19;4985169;28;51972;-51
2022/11/10 01:27:33;;;;;;;;;12.50;11.25;;;;;-147.17;100.00;-15917.19;4971199;28;51413;-51
2022/11/10 01:29:59;;;;;;;;;15.25;15.00;;;;;-147.17;100.00;-15917.19;4964636;28;51359;-49
2022/11/10 01:32:24;;;;;;;;;13.25;11.50;;;;;-147.17;100.00;-15917.19;4988826;28;52243;-50
2022/11/10 01:34:50;;;;;;;;;11.50;11.00;;;;;-147.17;100.00;-15917.19;4986000;28;52331;-49
2022/11/10 01:37:15;;;;;;;;;13.00;11.00;;;;;-147.17;100.00;-15917.19;4987654;28;51972;-52
2022/11/10 01:39:41;;;;;;;;;12.75;10.75;;;;;-147.17;100.00;-15917.19;4967443;28;52422;-51
2022/11/10 01:42:07;;;;;;;;;12.00;10.00;;;;;-147.17;100.00;-15917.19;4985511;28;51372;-49
2022/11/10 01:44:35;;;;;;;;;12.00;10.50;;;;;-147.17;100.00;-15917.19;4970316;28;51785;-51
2022/11/10 01:47:00;;;;;;;;;9.25;9.25;;;;;-147.17;100.00;-15917.19;4966343;28;52134;-51
2022/11/10 01:49:27;;;;;;;;;12.50;10.75;;;;;-147.17;100.00;-15917.19;4987318;28;51096;-51
2022/11/10 01:52:05;;;;;;;;;12.75;12.00;;;;;-147.17;100.00;-15917.19;4984022;28;51983;-49
2022/11/10 01:54:42;;;;;;;;;11.00;11.00;;;;;-147.17;100.00;-15917.19;4986259;28;51251;-52
2022/11/10 01:57:11;;;;;;;;;12.25;11.25;;;;;-147.17;100.00;-15917.19;4986356;28;51182;-50
2022/11/10 01:59:46;;;;;;;;;13.75;12.50;;;;;-147.17;100.00;-15917.19;4991902;28;51061;-56
2022/11/10 02:02:20;;;;;;;;;19.75;19.00;;;;;-147.17;100.00;-15917.19;4974957;28;51485;-52
2022/11/10 02:04:48;;;;;;;;;9.50;9.50;;;;;-147.17;100.00;-15917.19;4987547;28;51113;-50
2022/11/10 02:07:14;;;;;;;;;11.75;11.75;;;;;-147.17;100.00;-15917.19;4982277;28;52472;-51
2022/11/10 02:09:39;;;;;;;;;9.00;9.00;;;;;-147.17;100.00;-15917.19;4988054;28;51224;-50
2022/11/10 02:12:05;;;;;;;;;6.50;6.50;;;;;-147.17;100.00;-15917.19;4991258;28;51531;-50
2022/11/10 02:14:30;;;;;;;;;9.75;9.75;;;;;-147.17;100.00;-15917.19;4959888;28;54493;-53
2022/11/10 02:16:56;;;;;;;;;11.00;10.75;;;;;-147.17;100.00;-15917.19;4986547;28;51223;-49
2022/11/10 02:19:24;;;;;;;;;10.75;9.50;;;;;-147.17;100.00;-15917.19;4989279;28;51111;-51
2022/11/10 02:21:50;;;;;;;;;19.75;19.25;;;;;-147.17;100.00;-15917.19;4992181;28;51182;-48
2022/11/10 02:24:15;;;;;;;;;40.50;36.25;;;;;-147.17;100.00;-15917.19;4987469;28;51147;-53
2022/11/10 02:26:53;;;;;;;;;12.25;11.00;;;;;-147.17;100.00;-15917.19;4990715;28;51274;-48
2022/11/10 02:29:19;;;;;;;;;13.25;13.25;;;;;-147.17;100.00;-15917.19;4992209;28;51265;-52
2022/11/10 02:31:45;;;;;;;;;12.00;11.25;;;;;-147.17;100.00;-15917.19;4986643;28;51176;-50
2022/11/10 02:34:10;;;;;;;;;13.25;13.25;;;;;-147.17;100.00;-15917.19;4991199;28;51183;-49
2022/11/10 02:36:35;;;;;;;;;19.00;18.25;;;;;-147.17;100.00;-15917.19;4988109;28;51248;-53
2022/11/10 02:39:01;;;;;;;;;13.75;12.75;;;;;-147.17;100.00;-15917.19;4988750;28;52885;-51
2022/11/10 02:41:27;;;;;;;;;15.00;11.00;;;;;-147.17;100.00;-15917.19;4991082;28;51170;-50
2022/11/10 02:43:54;;;;;;;;;19.75;19.25;;;;;-147.17;100.00;-15917.19;4986811;28;52242;-50
2022/11/10 02:46:20;;;;;;;;;17.50;15.00;;;;;-147.17;100.00;-15917.19;4965759;28;51016;-52
2022/11/10 02:48:45;;;;;;;;;12.50;12.50;;;;;-147.17;100.00;-15917.19;4989554;28;51611;-52
2022/11/10 02:51:11;;;;;;;;;12.50;11.00;;;;;-147.17;100.00;-15917.19;4991386;28;51776;-51
2022/11/10 02:53:36;;;;;;;;;14.25;13.25;;;;;-147.17;100.00;-15917.19;4992723;28;51305;-52
2022/11/10 02:56:01;;;;;;;;;14.75;14.75;;;;;-147.17;100.00;-15917.19;4997161;28;51055;-49
2022/11/10 02:58:27;;;;;;;;;17.00;16.50;;;;;-147.17;100.00;-15917.19;4987360;28;51244;-53
2022/11/10 03:00:52;;;;;;;;;15.50;13.50;;;;;-147.17;100.00;-15917.19;4992070;28;51477;-50
2022/11/10 03:03:18;;;;;;;;;14.75;14.25;;;;;-147.17;100.00;-15917.19;4991814;28;51166;-50
2022/11/10 03:05:43;;;;;;;;;49.50;41.00;;;;;-147.17;100.00;-15917.19;4990346;28;51049;-50
2022/11/10 03:08:08;;;;;;;;;16.00;15.00;;;;;-147.17;100.00;-15917.19;4991622;28;51011;-50
2022/11/10 03:10:34;;;;;;;;;14.00;12.50;;;;;-147.17;100.00;-15917.19;4991810;28;51139;-49
2022/11/10 03:13:01;;;;;;;;;16.75;15.25;;;;;-147.17;100.00;-15917.19;4992973;28;51024;-51
2022/11/10 03:15:27;;;;;;;;;21.25;21.00;;;;;-147.17;100.00;-15917.19;4990892;28;51148;-52
2022/11/10 03:17:52;;;;;;;;;15.00;14.00;;;;;-147.17;100.00;-15917.19;4983999;28;51548;-49
2022/11/10 03:20:18;;;;;;;;;13.25;13.25;;;;;-147.17;100.00;-15917.19;4973937;28;51181;-50
2022/11/10 03:22:45;;;;;;;;;17.75;17.00;;;;;-147.17;100.00;-15917.19;4987005;28;53650;-50
2022/11/10 03:25:11;;;;;;;;;19.00;17.75;;;;;-147.17;100.00;-15917.19;4992547;28;51169;-51
2022/11/10 03:27:37;;;;;;;;;38.00;35.00;;;;;-147.17;100.00;-15917.19;4991981;28;51164;-48
2022/11/10 03:30:04;;;;;;;;;30.50;29.50;;;;;-147.17;100.00;-15917.19;4992028;28;51035;-49
2022/11/10 03:32:30;;;;;;;;;19.00;17.25;;;;;-147.17;100.00;-15917.19;4988792;28;51145;-50
2022/11/10 03:34:56;;;;;;;;;16.50;14.75;;;;;-147.17;100.00;-15917.19;4990772;28;51453;-52
2022/11/10 03:37:21;;;;;;;;;16.25;14.25;;;;;-147.17;100.00;-15917.19;4991923;28;51164;-49
2022/11/10 03:39:47;;;;;;;;;13.75;12.25;;;;;-147.17;100.00;-15917.19;4991098;28;51289;-52
2022/11/10 03:42:12;;;;;;;;;11.50;11.50;;;;;-147.17;100.00;-15917.19;4989815;28;51191;-52
2022/11/10 03:44:38;;;;;;;;;15.00;14.00;;;;;-147.17;100.00;-15917.19;4990022;28;51309;-52
2022/11/10 03:47:04;;;;;;;;;17.25;14.00;;;;;-147.17;100.00;-15917.19;4991339;28;51286;-51
2022/11/10 03:49:30;;;;;;;;;12.25;10.25;;;;;-147.17;100.00;-15917.19;4968575;28;51324;-51
2022/11/10 03:51:55;;;;;;;;;23.50;22.25;;;;;-147.17;100.00;-15917.19;4987417;28;51132;-53
2022/11/10 03:54:21;;;;;;;;;12.50;11.50;;;;;-147.17;100.00;-15917.19;4992588;28;51176;-51
2022/11/10 03:56:46;;;;;;;;;14.00;11.75;;;;;-147.17;100.00;-15917.19;4981348;28;51216;-49
2022/11/10 03:59:11;;;;;;;;;12.25;11.75;;;;;-147.17;100.00;-15917.19;4991427;28;50876;-50
2022/11/10 04:01:37;;;;;;;;;14.25;12.25;;;;;-147.17;100.00;-15917.19;4990037;28;51731;-49
2022/11/10 04:04:02;;;;;;;;;15.75;11.25;;;;;-147.17;100.00;-15917.19;4986929;28;51194;-50
2022/11/10 04:09:12;;;;;;;;;16.00;11.50;;;;;-147.17;100.00;-15917.19;4975684;28;50927;-50
2022/11/10 04:17:05;;;;;;;;;9.50;9.50;;;;;-147.17;100.00;-15917.19;4987150;28;51197;-49
2022/11/10 04:19:31;;;;;;;;;11.50;10.75;;;;;-147.17;100.00;-15917.19;4966556;28;51213;-52
2022/11/10 04:21:57;;;;;;;;;13.25;10.75;;;;;-147.17;100.00;-15917.19;4983172;28;52547;-50
2022/11/10 04:24:22;;;;;;;;;12.00;12.00;;;;;-147.17;100.00;-15917.19;4985827;28;50974;-52
2022/11/10 04:26:48;;;;;;;;;16.00;14.25;;;;;-147.17;100.00;-15917.19;4989951;28;51179;-49
2022/11/10 04:29:16;;;;;;;;;14.50;14.50;;;;;-147.17;100.00;-15917.19;4990848;28;51183;-49
2022/11/10 04:31:42;;;;;;;;;14.50;12.75;;;;;-147.17;100.00;-15917.19;4970772;28;51947;-50
2022/11/10 04:34:10;;;;;;;;;12.25;12.25;;;;;-147.17;100.00;-15917.19;4989075;28;51172;-57
2022/11/10 04:36:38;;;;;;;;;13.75;11.75;;;;;-147.17;100.00;-15917.19;4972248;28;51597;-49
2022/11/10 04:39:05;;;;;;;;;11.00;10.75;;;;;-147.17;100.00;-15917.19;4992422;28;51013;-48
2022/11/10 04:41:31;;;;;;;;;11.00;10.00;;;;;-147.17;100.00;-15917.19;4991411;28;53323;-48
2022/11/10 04:43:58;;;;;;;;;11.00;9.25;;;;;-147.17;100.00;-15917.19;4991777;28;51030;-47
2022/11/10 04:46:30;;;;;;;;;13.00;13.00;;;;;-147.17;100.00;-15917.19;4985467;28;51188;-48
2022/11/10 04:48:57;;;;;;;;;11.50;9.00;;;;;-147.17;100.00;-15917.19;4992406;28;51036;-47
2022/11/10 04:51:28;;;;;;;;;20.75;18.00;;;;;-147.17;100.00;-15917.19;4980489;28;52284;-47
2022/11/10 04:53:54;;;;;;;;;15.00;14.00;;;;;-147.17;100.00;-15917.19;4995130;28;51377;-50
2022/11/10 04:56:22;;;;;;;;;10.00;10.00;;;;;-147.17;100.00;-15917.19;4974274;28;51191;-49
2022/11/10 04:58:47;;;;;;;;;15.50;10.75;;;;;-147.17;100.00;-15917.19;4992433;28;51163;-47
2022/11/10 05:01:20;;;;;;;;;14.25;12.75;;;;;-147.17;100.00;-15917.19;4995154;28;51168;-49
2022/11/10 05:03:46;;;;;;;;;10.75;10.25;;;;;-147.17;100.00;-15917.19;4989780;28;51155;-46
2022/11/10 05:06:11;;;;;;;;;10.75;10.00;;;;;-147.17;100.00;-15917.19;4993695;28;51167;-47
2022/11/10 05:08:38;;;;;;;;;10.50;10.50;;;;;-147.17;100.00;-15917.19;4994793;28;51045;-48
2022/11/10 05:11:04;;;;;;;;;10.75;10.75;;;;;-147.17;100.00;-15917.19;4992455;28;52909;-47
2022/11/10 05:13:30;;;;;;;;;10.50;9.75;;;;;-147.17;100.00;-15917.19;4994753;28;51089;-47
2022/11/10 05:15:56;;;;;;;;;13.25;11.00;;;;;-147.17;100.00;-15917.19;4994705;28;51108;-47
2022/11/10 05:18:22;;;;;;;;;20.00;20.00;;;;;-147.17;100.00;-15917.19;4995148;28;51099;-48
2022/11/10 05:20:47;;;;;;;;;13.00;10.75;;;;;-147.17;100.00;-15917.19;4988539;28;51918;-47
2022/11/10 05:25:56;;;;;;;;;10.00;10.00;;;;;-147.17;100.00;-15917.19;4994752;28;51037;-47
2022/11/10 05:28:22;;;;;;;;;10.50;9.75;;;;;-147.17;100.00;-15917.19;4994697;28;51197;-47
2022/11/10 05:30:47;;;;;;;;;12.50;12.50;;;;;-147.17;100.00;-15917.19;4994690;28;51834;-48
2022/11/10 05:33:13;;;;;;;;;13.00;13.00;;;;;-147.17;100.00;-15917.19;4994488;28;50915;-48
2022/11/10 05:35:38;;;;;;;;;10.00;9.00;;;;;-147.17;100.00;-15917.19;4993233;28;50890;-47
2022/11/10 05:38:04;;;;;;;;;11.00;10.00;;;;;-147.17;100.00;-15917.19;4994746;28;50879;-48
2022/11/10 05:40:30;;;;;;;;;18.00;16.00;;;;;-147.17;100.00;-15917.19;4975024;28;51090;-48
2022/11/10 05:42:56;;;;;;;;;32.25;29.00;;;;;-147.17;100.00;-15917.19;4994878;28;51035;-48
2022/11/10 05:45:25;;;;;;;;;14.25;13.75;;;;;-147.17;100.00;-15917.19;4976340;28;51213;-46
2022/11/10 05:47:51;;;;;;;;;11.75;11.75;;;;;-147.17;100.00;-15917.19;4992954;28;51260;-48
2022/11/10 05:50:18;;;;;;;;;11.25;10.25;;;;;-147.17;100.00;-15917.19;4982146;28;50993;-48
2022/11/10 05:52:52;;;;;;;;;13.75;11.25;;;;;-147.17;100.00;-15917.19;4993874;28;51245;-47
2022/11/10 05:55:20;;;;;;;;;11.00;10.00;;;;;-147.17;100.00;-15917.19;4993570;28;51073;-46
2022/11/10 05:57:47;;;;;;;;;10.75;10.00;;;;;-147.17;100.00;-15917.19;4989135;28;51220;-48
2022/11/10 06:00:15;;;;;;;;;10.00;9.00;;;;;-147.17;100.00;-15917.19;4992592;28;51212;-47
2022/11/10 06:02:41;;;;;;;;;11.75;10.25;;;;;-147.17;100.00;-15917.19;4985901;28;50986;-47
2022/11/10 06:05:07;;;;;;;;;25.00;23.25;;;;;-147.17;100.00;-15917.19;4988063;28;51112;-48
2022/11/10 06:07:33;;;;;;;;;12.75;12.75;;;;;-147.17;100.00;-15917.19;4994126;28;51073;-48
2022/11/10 06:09:58;;;;;;;;;10.00;9.25;;;;;-147.17;100.00;-15917.19;4993069;28;51793;-47
2022/11/10 06:12:29;;;;;;;;;13.50;11.25;;;;;-147.17;100.00;-15917.19;4993783;28;57751;-47
2022/11/10 06:14:56;;;;;;;;;12.75;11.25;;;;;-147.17;100.00;-15917.19;4990448;28;51097;-47
2022/11/10 06:17:23;;;;;;;;;19.00;18.25;;;;;-147.17;100.00;-15917.19;4993582;28;51396;-48
2022/11/10 06:19:48;;;;;;;;;22.75;20.50;;;;;-147.17;100.00;-15917.19;4993617;28;52064;-48
2022/11/10 06:22:14;;;;;;;;;13.00;10.00;;;;;-147.17;100.00;-15917.19;4992969;28;50989;-48
2022/11/10 06:24:39;;;;;;;;;13.25;11.25;;;;;-147.17;100.00;-15917.19;4994181;28;51485;-47
2022/11/10 06:27:05;;;;;;;;;13.75;12.00;;;;;-147.17;100.00;-15917.19;4994044;28;51418;-47
2022/11/10 06:29:30;;;;;;;;;12.50;12.50;;;;;-147.17;100.00;-15917.19;4992635;28;51941;-47
2022/11/10 06:31:56;;;;;;;;;13.00;11.25;;;;;-147.17;100.00;-15917.19;4993599;28;51175;-47
2022/11/10 06:34:21;;;;;;;;;16.00;15.00;;;;;-147.17;100.00;-15917.19;4985940;28;51226;-54
2022/11/10 06:36:46;;;;;;;;;16.50;14.00;;;;;-147.17;100.00;-15917.19;4993352;28;51139;-47
2022/11/10 06:39:12;;;;;;;;;14.25;14.25;;;;;-147.17;100.00;-15917.19;4993695;28;51701;-49
2022/11/10 06:41:37;;;;;;;;;15.75;13.75;;;;;-147.17;100.00;-15917.19;4992977;28;51561;-47
2022/11/10 06:44:03;;;;;;;;;12.75;11.75;;;;;-147.17;100.00;-15917.19;4992549;28;51192;-47
2022/11/10 06:46:28;;;;;;;;;10.00;10.00;;;;;-147.17;100.00;-15917.19;4991784;28;51321;-47
2022/11/10 06:48:54;;;;;;;;;13.00;11.00;;;;;-147.17;100.00;-15917.19;4993018;28;52737;-47
2022/11/10 06:51:19;;;;;;;;;16.50;13.50;;;;;-147.17;100.00;-15917.19;4975330;28;51125;-47
2022/11/10 06:53:44;;;;;;;;;12.00;11.00;;;;;-147.17;100.00;-15917.19;4993503;28;50871;-47
2022/11/10 06:56:09;;;;;;;;;11.25;11.25;;;;;-147.17;100.00;-15917.19;4997304;28;50912;-47
2022/11/10 06:58:35;;;;;;;;;15.00;14.00;;;;;-147.17;100.00;-15917.19;4992006;28;51715;-47
2022/11/10 07:01:00;;;;;;;;;16.00;14.50;;;;;-147.17;100.00;-15917.19;4992966;28;51014;-47
2022/11/10 07:03:26;;;;;;;;;15.25;14.25;;;;;-147.17;100.00;-15917.19;4979765;28;51090;-48
2022/11/10 07:05:52;;;;;;;;;14.50;13.25;;;;;-147.17;100.00;-15917.19;4992853;28;51330;-47
2022/11/10 07:08:17;;;;;;;;;13.75;12.25;;;;;-147.17;100.00;-15917.19;4992577;28;52652;-47
2022/11/10 07:10:44;;;;;;;;;11.25;10.50;;;;;-147.17;100.00;-15917.19;4992392;28;51132;-49
2022/11/10 07:13:10;;;;;;;;;11.00;10.75;;;;;-147.17;100.00;-15917.19;4992242;28;51081;-46
2022/11/10 07:15:36;;;;;;;;;15.75;14.25;;;;;-147.17;100.00;-15917.19;4992580;28;51137;-48
2022/11/10 07:18:03;;;;;;;;;14.75;14.00;;;;;-147.17;100.00;-15917.19;4992606;28;52051;-46
2022/11/10 07:20:30;;;;;;;;;14.25;11.25;;;;;-147.17;100.00;-15917.19;4991941;28;51173;-47
2022/11/10 07:22:59;;;;;;;;;13.25;11.50;;;;;-147.17;100.00;-15917.19;4984044;28;51195;-47
2022/11/10 07:25:25;;;;;;;;;14.00;14.00;;;;;-147.17;100.00;-15917.19;4992561;28;51275;-48
2022/11/10 07:28:01;;;;;;;;;14.00;12.50;;;;;-147.17;100.00;-15917.19;4991896;28;51048;-47
2022/11/10 07:30:28;;;;;;;;;17.50;15.75;;;;;-147.17;100.00;-15917.19;4992110;28;50997;-46
2022/11/10 07:33:00;;;;;;;;;22.75;20.25;;;;;-147.17;100.00;-15917.19;4991809;28;51239;-46
2022/11/10 07:35:27;;;;;;;;;18.50;15.50;;;;;-147.17;100.00;-15917.19;4991781;28;51173;-46
2022/11/10 07:37:56;;;;;;;;;14.75;14.00;;;;;-147.17;100.00;-15917.19;4992119;28;52932;-47
2022/11/10 07:40:22;;;;;;;;;19.50;16.25;;;;;-147.17;100.00;-15917.19;4992251;28;51337;-48
2022/11/10 07:42:47;;;;;;;;;14.00;13.75;;;;;-147.17;100.00;-15917.19;4991894;28;51094;-48
2022/11/10 07:45:13;;;;;;;;;22.00;21.00;;;;;-147.17;100.00;-15917.19;4991370;28;51122;-48
2022/11/10 07:47:38;;;;;;;;;14.00;11.00;;;;;-147.17;100.00;-15917.19;4991818;28;51070;-47
2022/11/10 07:50:04;;;;;;;;;16.50;15.50;;;;;-147.17;100.00;-15917.19;4991342;28;51175;-47
2022/11/10 07:52:30;;;;;;;;;21.75;17.50;;;;;-147.17;100.00;-15917.19;4990889;28;51327;-46
2022/11/10 07:54:55;;;;;;;;;16.50;15.75;;;;;-147.17;100.00;-15917.19;4989125;28;51352;-46
2022/11/10 07:57:20;;;;;;;;;17.00;17.00;;;;;-147.17;100.00;-15917.19;4981929;28;51947;-47
2022/11/10 07:59:46;;;;;;;;;18.00;18.00;;;;;-147.17;100.00;-15917.19;4990556;28;51252;-47
2022/11/10 08:02:11;;;;;;;;;17.00;16.50;;;;;-147.17;100.00;-15917.19;4979270;28;50985;-48
2022/11/10 08:04:36;;;;;;;;;17.00;17.00;;;;;-147.17;100.00;-15917.19;4983128;28;53290;-47
2022/11/10 08:07:01;;;;;;;;;18.50;18.50;;;;;-147.17;100.00;-15917.19;4984964;28;60359;-47
2022/11/10 08:09:27;;;;;;;;;16.25;16.00;;;;;-147.17;100.00;-15917.19;4988776;28;51061;-47
2022/11/10 08:11:52;;;;;;;;;17.00;15.00;;;;;-147.17;100.00;-15917.19;4990662;28;51210;-46
2022/11/10 08:14:18;;;;;;;;;19.00;15.50;;;;;-147.17;100.00;-15917.19;4991487;28;51337;-47
2022/11/10 08:16:43;;;;;;;;;19.50;18.00;;;;;-147.17;100.00;-15917.19;4989617;28;51818;-48
2022/11/10 08:19:08;;;;;;;;;15.25;14.75;;;;;-147.17;100.00;-15917.19;4986159;28;51113;-47
2022/11/10 08:21:34;;;;;;;;;17.00;16.00;;;;;-147.17;100.00;-15917.19;4972331;28;51204;-48
2022/11/10 08:23:59;;;;;;;;;15.00;13.25;;;;;-147.17;100.00;-15917.19;4978627;28;50936;-49
2022/11/10 08:26:24;;;;;;;;;20.00;19.50;;;;;-147.17;100.00;-15917.19;4996732;28;51993;-47
2022/11/10 08:28:50;;;;;;;;;20.50;18.75;;;;;-147.17;100.00;-15917.19;4998426;28;51006;-46
2022/11/10 08:31:15;;;;;;;;;19.50;19.25;;;;;-147.17;100.00;-15917.19;4997810;28;51457;-47
2022/11/10 08:33:41;;;;;;;;;19.50;18.25;;;;;-147.17;100.00;-15917.19;4998071;28;51044;-46
2022/11/10 08:36:07;;;;;;;;;22.00;20.00;;;;;-147.17;100.00;-15917.19;4997423;28;51166;-47
2022/11/10 08:38:32;;;;;;;;;19.75;18.75;;;;;-147.17;100.00;-15917.19;4997507;28;50914;-48
2022/11/10 08:40:57;;;;;;;;;18.25;18.25;;;;;-147.17;100.00;-15917.19;4995677;28;51150;-46
2022/11/10 08:43:23;;;;;;;;;23.50;20.75;;;;;-147.17;100.00;-15917.19;4997523;28;51077;-51
2022/11/10 08:45:49;;;;;;;;;23.75;23.00;;;;;-147.17;100.00;-15917.19;4995199;28;51071;-47
2022/11/10 08:48:17;;;;;;;;;22.25;21.00;;;;;-147.17;100.00;-15917.19;4998040;28;51089;-46
2022/11/10 08:50:43;;;;;;;;;22.25;22.25;;;;;-147.17;100.00;-15917.19;4996567;28;51257;-48
2022/11/10 08:53:11;;;;;;;;;27.50;27.00;;;;;-147.17;100.00;-15917.19;4997819;28;51109;-47
2022/11/10 08:55:36;;;;;;;;;25.25;23.25;;;;;-147.17;100.00;-15917.19;5001912;28;51900;-47
2022/11/10 08:58:03;;;;;;;;;24.50;23.00;;;;;-147.17;100.00;-15917.19;4983171;28;50997;-47
2022/11/10 09:00:31;;;;;;;;;25.75;25.50;;;;;-147.17;100.00;-15917.19;4982885;28;51236;-47
2022/11/10 09:03:21;;;;;;;;;19.50;18.50;;;;;-147.17;100.00;-15917.19;4996070;28;51371;-48
2022/11/10 09:05:47;;;;;;;;;22.25;20.50;;;;;-147.17;100.00;-15917.19;4997485;28;50985;-47
2022/11/10 09:08:13;;;;;;;;;25.25;25.00;;;;;-147.17;100.00;-15917.19;4998011;28;51111;-47
2022/11/10 09:10:42;;;;;;;;;23.00;22.25;;;;;-147.17;100.00;-15917.19;4997399;28;51238;-47
2022/11/10 09:13:08;;;;;;;;;25.25;24.75;;;;;-147.17;100.00;-15917.19;4998079;28;51269;-46
2022/11/10 09:15:34;;;;;;;;;26.00;26.00;;;;;-147.17;100.00;-15917.19;4996505;28;52288;-47
2022/11/10 09:18:01;;;;;;;;;25.50;22.00;;;;;-147.17;100.00;-15917.19;4985636;28;50939;-47
2022/11/10 09:20:28;;;;;;;;;23.00;22.50;;;;;-147.17;100.00;-15917.19;4985256;28;51137;-47
2022/11/10 09:22:54;;;;;;;;;23.75;22.50;;;;;-147.17;100.00;-15917.19;4989921;28;50939;-47
2022/11/10 09:25:19;;;;;;;;;25.00;24.25;;;;;-147.17;100.00;-15917.19;4985154;28;52863;-47
2022/11/10 09:27:45;;;;;;;;;27.50;25.25;;;;;-147.17;100.00;-15917.19;4997739;28;51341;-48
2022/11/10 09:30:11;;;;;;;;;21.25;20.75;;;;;-147.17;100.00;-15917.19;4967769;28;51298;-47
2022/11/10 09:32:36;;;;;;;;;23.50;22.75;;;;;-147.17;100.00;-15917.19;4985834;28;51022;-47
2022/11/10 09:35:02;;;;;;;;;22.25;21.75;;;;;-147.17;100.00;-15917.19;4993110;28;51735;-47
2022/11/10 09:37:28;;;;;;;;;28.50;24.50;;;;;-147.17;100.00;-15917.19;4969812;28;51136;-48
2022/11/10 09:39:53;;;;;;;;;21.75;21.75;;;;;-147.17;100.00;-15917.19;4988377;28;51108;-47
2022/11/10 09:42:40;;;;;;;;;24.00;22.50;;;;;-147.17;100.00;-15917.19;4993227;28;51451;-47
2022/11/10 09:45:21;;;;;;;;;23.50;21.50;;;;;-147.17;100.00;-15917.19;4989908;28;51728;-48
2022/11/10 09:47:58;;;;;;;;;24.50;22.50;;;;;-147.17;100.00;-15917.19;4973902;28;51099;-48
2022/11/10 09:50:38;;;;;;;;;24.25;22.25;;;;;-147.17;100.00;-15917.19;4993589;28;51160;-47
2022/11/10 09:53:10;;;;;;;;;21.25;20.50;;;;;-147.17;100.00;-15917.19;4994033;28;50855;-47
2022/11/10 09:56:03;;;;;;;;;25.75;22.75;;;;;-147.17;100.00;-15917.19;4997091;28;51126;-48
2022/11/10 09:58:38;;;;;;;;;10.00;10.00;;;;;-147.17;100.00;-15917.19;4992792;28;50996;-48
2022/11/10 10:01:21;;;;;;;;;35.00;33.00;;;;;-147.17;100.00;-15917.19;4991638;28;51276;-47
2022/11/10 10:03:57;;;;;;;;;31.75;27.75;;;;;-147.17;100.00;-15917.19;4983832;28;51029;-47
2022/11/10 10:06:23;;;;;;;;;31.75;30.75;;;;;-147.17;100.00;-15917.19;4990113;28;52132;-48
2022/11/10 10:09:02;;;;;;;;;30.75;29.50;;;;;-147.17;100.00;-15917.19;4994248;28;51116;-47
2022/11/10 10:11:50;;;;;;;;;29.50;27.25;;;;;-147.17;100.00;-15917.19;4994255;28;50858;-47
2022/11/10 10:14:15;;;;;;;;;32.00;27.75;;;;;-147.17;100.00;-15917.19;4993975;28;51330;-47
2022/11/10 10:17:20;;;;;;;;;26.75;24.75;;;;;-147.17;100.00;-15917.19;4993977;28;51062;-46
2022/11/10 10:20:02;;;;;;;;;27.00;22.75;;;;;-147.17;100.00;-15917.19;4962948;28;51128;-46
2022/11/10 10:22:47;;;;;;;;;22.50;21.75;;;;;-147.17;100.00;-15917.19;4993619;28;51106;-47
2022/11/10 10:25:21;;;;;;;;;22.25;20.00;;;;;-147.17;100.00;-15917.19;4994021;28;51103;-47
2022/11/10 10:27:56;;;;;;;;;20.25;18.50;;;;;-147.17;100.00;-15917.19;4993514;28;53097;-47
2022/11/10 10:30:21;;;;;;;;;24.00;22.25;;;;;-147.17;100.00;-15917.19;4992381;28;51045;-46
2022/11/10 10:32:47;;;;;;;;;25.75;23.50;;;;;-147.17;100.00;-15917.19;4993303;28;50861;-51
2022/11/10 10:35:15;;;;;;;;;25.75;22.25;;;;;-147.17;100.00;-15917.19;4992816;28;51226;-47
2022/11/10 10:37:49;;;;;;;;;27.50;25.25;;;;;-147.17;100.00;-15917.19;4991750;28;51126;-47
2022/11/10 10:40:20;;;;;;;;;23.25;22.25;;;;;-147.17;100.00;-15917.19;4993617;28;51029;-47
2022/11/10 10:42:46;;;;;;;;;24.50;20.75;;;;;-147.17;100.00;-15917.19;4993199;28;51094;-48
2022/11/10 10:45:25;;;;;;;;;21.75;21.25;;;;;-147.17;100.00;-15917.19;4989193;28;50851;-47
2022/11/10 10:47:53;;;;;;;;;19.75;17.50;;;;;-147.17;100.00;-15917.19;4992585;28;51014;-48
2022/11/10 10:50:27;;;;;;;;;20.00;19.50;;;;;-147.17;100.00;-15917.19;4992913;28;51038;-46
2022/11/10 10:53:11;;;;;;;;;22.25;20.00;;;;;-147.17;100.00;-15917.19;4987257;28;51168;-48
2022/11/10 10:55:38;;;;;;;;;20.67;20.67;;;;;-147.17;100.00;-15917.19;4989311;28;51092;-46
2022/11/10 10:58:18;;;;;;;;;26.00;22.75;;;;;-147.17;100.00;-15917.19;4991724;28;52153;-47
2022/11/10 11:00:45;;;;;;;;;21.33;20.67;;;;;-147.17;100.00;-15917.19;4992915;28;51902;-47
2022/11/10 11:03:43;;;;;;;;;22.00;21.67;;;;;-147.17;100.00;-15917.19;4992989;28;50973;-47